Time;durP1;ratioP1;P1;durP2;ratioP2;P2;SDS_P1;SDS_P2;PMS_P1;PMS_P2;Temp;Humidity;BMP_temperature;BMP_pressure;BME280_temperature;BME280_humidity;BME280_pressure;Samples;Min_cycle;Max_cycle;Signal;HPM_P1;HPM_P2
2022/10/14 00:01:08;;;;;;;19.05;13.38;;;11.90;99.90;;;;;;5129813;27;20050;-69
2022/10/14 00:03:36;;;;;;;15.68;12.27;;;11.90;99.90;;;;;;5107105;27;20104;-74
2022/10/14 00:06:14;;;;;;;25.42;13.68;;;11.90;99.90;;;;;;5116108;27;20051;-69
2022/10/14 00:08:40;;;;;;;25.42;13.65;;;11.80;99.90;;;;;;5129808;27;20507;-71
2022/10/14 00:11:13;;;;;;;21.02;12.77;;;11.80;99.90;;;;;;5116930;27;20169;-70
2022/10/14 00:13:39;;;;;;;19.00;13.27;;;11.80;99.90;;;;;;5131205;27;20099;-69
2022/10/14 00:16:13;;;;;;;23.17;14.77;;;11.80;99.90;;;;;;5149249;27;20038;-70
2022/10/14 00:18:38;;;;;;;21.45;15.18;;;11.80;99.90;;;;;;5123224;27;20081;-72
2022/10/14 00:21:04;;;;;;;24.98;15.10;;;11.80;99.90;;;;;;5143805;27;20081;-75
2022/10/14 00:23:30;;;;;;;21.73;14.63;;;11.80;99.90;;;;;;5111605;27;20039;-70
2022/10/14 00:25:56;;;;;;;23.25;14.57;;;11.70;99.90;;;;;;5141598;27;20541;-69
2022/10/14 00:28:21;;;;;;;28.80;17.55;;;11.70;99.90;;;;;;5131001;27;20324;-69
2022/10/14 00:30:59;;;;;;;27.35;16.60;;;11.70;99.90;;;;;;5130958;27;20042;-74
2022/10/14 00:33:25;;;;;;;32.33;17.75;;;11.70;99.90;;;;;;5121826;27;20415;-69
2022/10/14 00:35:56;;;;;;;31.38;16.83;;;11.70;99.90;;;;;;5121194;27;20042;-70
2022/10/14 00:38:23;;;;;;;64.75;18.02;;;11.60;99.90;;;;;;5138377;27;20093;-69
2022/10/14 00:40:49;;;;;;;342.92;21.90;;;11.60;99.90;;;;;;5131289;27;20047;-70
2022/10/14 00:43:15;;;;;;;480.55;24.67;;;11.60;99.90;;;;;;5112851;27;20050;-69
2022/10/14 00:45:41;;;;;;;402.02;22.42;;;11.60;99.90;;;;;;5144054;27;20038;-69
2022/10/14 00:48:08;;;;;;;241.75;18.33;;;11.60;99.90;;;;;;5118617;27;20043;-70
2022/10/14 00:50:35;;;;;;;330.10;20.98;;;11.60;99.90;;;;;;5120724;27;20038;-70
2022/10/14 00:53:02;;;;;;;287.23;18.67;;;11.50;99.90;;;;;;5130881;27;20047;-69
2022/10/14 00:55:28;;;;;;;205.43;15.75;;;11.50;99.90;;;;;;5129874;27;20046;-69
2022/10/14 00:57:54;;;;;;;233.32;17.00;;;11.50;99.90;;;;;;5130758;27;20039;-70
2022/10/14 01:00:22;;;;;;;258.20;15.20;;;11.50;99.90;;;;;;5129900;27;20384;-70
2022/10/14 01:02:48;;;;;;;260.83;16.40;;;11.50;99.90;;;;;;5129561;27;20047;-69
2022/10/14 01:05:17;;;;;;;257.92;19.23;;;11.40;99.90;;;;;;5112814;27;20066;-70
2022/10/14 01:07:59;;;;;;;239.40;17.08;;;11.40;99.90;;;;;;5129236;27;20195;-70
2022/10/14 01:10:44;;;;;;;283.55;20.52;;;11.40;99.90;;;;;;5111519;27;20109;-70
2022/10/14 01:13:19;;;;;;;262.63;18.73;;;11.40;99.90;;;;;;5116119;27;20129;-70
2022/10/14 01:16:28;;;;;;;334.20;20.13;;;11.40;99.90;;;;;;5110230;27;20078;-70
2022/10/14 01:19:27;;;;;;;274.00;19.97;;;11.30;99.90;;;;;;5147680;27;20058;-78
2022/10/14 01:22:07;;;;;;;286.60;20.17;;;11.30;99.90;;;;;;5095090;27;20398;-71
2022/10/14 01:24:47;;;;;;;295.05;20.95;;;11.20;99.90;;;;;;5112572;27;20543;-70
2022/10/14 01:28:01;;;;;;;154.10;14.73;;;11.20;99.90;;;;;;5116545;27;20061;-70
2022/10/14 01:30:42;;;;;;;103.20;13.88;;;11.20;99.90;;;;;;5132882;27;20058;-70
2022/10/14 01:33:21;;;;;;;113.70;13.75;;;11.20;99.90;;;;;;5129526;27;20048;-70
2022/10/14 01:36:12;;;;;;;152.32;13.75;;;11.20;99.90;;;;;;5148638;27;20087;-70
2022/10/14 01:38:48;;;;;;;84.32;13.25;;;11.20;99.90;;;;;;5116847;27;20139;-70
2022/10/14 01:41:25;;;;;;;116.07;13.60;;;11.20;99.90;;;;;;5148462;27;20844;-70
2022/10/14 01:43:53;;;;;;;272.58;15.18;;;11.20;99.90;;;;;;5128932;27;20488;-71
2022/10/14 01:46:22;;;;;;;316.60;15.13;;;11.10;99.90;;;;;;5127545;27;20039;-70
2022/10/14 01:48:52;;;;;;;190.40;14.77;;;11.10;99.90;;;;;;5129766;27;20099;-71
2022/10/14 01:51:25;;;;;;;302.17;14.50;;;11.00;99.90;;;;;;5128650;27;20403;-73
2022/10/14 01:53:59;;;;;;;358.08;15.05;;;11.00;99.90;;;;;;5148955;27;20042;-73
2022/10/14 01:56:28;;;;;;;239.50;11.73;;;10.90;99.90;;;;;;5146338;27;20264;-70
2022/10/14 01:58:55;;;;;;;313.77;12.57;;;10.90;99.90;;;;;;5129650;27;20496;-71
2022/10/14 02:01:20;;;;;;;240.60;11.05;;;10.80;99.90;;;;;;5111513;27;20066;-86
2022/10/14 02:03:47;;;;;;;396.80;12.40;;;10.80;99.90;;;;;;5128795;27;20062;-70
2022/10/14 02:06:24;;;;;;;383.63;12.98;;;10.70;99.90;;;;;;5111897;27;20492;-71
2022/10/14 02:09:11;;;;;;;263.52;8.95;;;10.70;99.90;;;;;;5127093;27;20571;-70
2022/10/14 02:11:52;;;;;;;351.92;9.65;;;10.60;99.90;;;;;;5118512;27;20051;-71
2022/10/14 02:14:37;;;;;;;290.35;10.48;;;10.60;99.90;;;;;;5147024;27;20438;-70
2022/10/14 02:17:23;;;;;;;141.52;7.40;;;10.60;99.90;;;;;;5128617;27;20099;-71
2022/10/14 02:20:08;;;;;;;171.25;7.60;;;10.60;99.90;;;;;;5112805;27;20417;-71
2022/10/14 02:22:44;;;;;;;157.82;9.10;;;10.60;99.90;;;;;;5142571;27;20045;-71
2022/10/14 02:25:27;;;;;;;152.98;10.10;;;10.60;99.90;;;;;;5124960;27;20057;-71
2022/10/14 02:27:53;;;;;;;135.93;10.32;;;10.60;99.90;;;;;;5125288;27;20078;-70
2022/10/14 02:30:20;;;;;;;37.38;7.78;;;10.50;99.90;;;;;;5127871;27;20376;-70
2022/10/14 02:32:48;;;;;;;88.18;9.25;;;10.50;99.90;;;;;;5129461;27;20047;-70
2022/10/14 02:35:17;;;;;;;69.20;8.85;;;10.50;99.90;;;;;;5127671;27;20050;-71
2022/10/14 02:37:45;;;;;;;60.90;8.13;;;10.50;99.90;;;;;;5128650;27;20126;-71
2022/10/14 02:40:16;;;;;;;72.20;9.43;;;10.40;99.90;;;;;;5146176;27;20038;-70
2022/10/14 02:42:42;;;;;;;71.50;9.30;;;10.40;99.90;;;;;;5128401;27;20491;-71
2022/10/14 02:45:09;;;;;;;67.75;9.27;;;10.40;99.90;;;;;;5128460;27;20085;-71
2022/10/14 02:47:35;;;;;;;69.80;9.38;;;10.40;99.90;;;;;;5147058;27;20054;-81
2022/10/14 02:50:01;;;;;;;53.67;8.80;;;10.40;99.90;;;;;;5147128;27;20051;-70
2022/10/14 02:52:27;;;;;;;78.63;9.55;;;10.40;99.90;;;;;;5126776;27;20046;-70
2022/10/14 02:54:52;;;;;;;86.78;10.63;;;10.40;99.90;;;;;;5128834;27;20077;-70
2022/10/14 02:57:18;;;;;;;83.22;10.27;;;10.40;99.90;;;;;;5126745;27;20053;-70
2022/10/14 02:59:44;;;;;;;109.00;9.75;;;10.40;99.90;;;;;;5127901;27;20038;-70
2022/10/14 03:02:09;;;;;;;126.53;10.68;;;10.40;99.90;;;;;;5127032;27;20034;-91
2022/10/14 03:04:36;;;;;;;56.95;9.07;;;10.40;99.90;;;;;;5127156;27;20127;-71
2022/10/14 03:07:02;;;;;;;90.30;8.25;;;10.40;99.90;;;;;;5124638;28;20043;-70
2022/10/14 03:09:28;;;;;;;90.50;7.82;;;10.30;99.90;;;;;;5094119;28;20039;-70
2022/10/14 03:11:53;;;;;;;89.32;9.40;;;10.30;99.90;;;;;;5126957;27;20061;-70
2022/10/14 03:14:19;;;;;;;105.32;7.45;;;10.30;99.90;;;;;;5127036;27;20163;-70
2022/10/14 03:16:45;;;;;;;127.75;7.30;;;10.30;99.90;;;;;;5129362;27;20404;-70
2022/10/14 03:19:10;;;;;;;102.53;7.93;;;10.30;99.90;;;;;;5126865;27;20756;-70
2022/10/14 03:21:36;;;;;;;62.33;6.53;;;10.20;99.90;;;;;;5128185;27;20034;-70
2022/10/14 03:24:02;;;;;;;136.07;7.85;;;10.20;99.90;;;;;;5146052;27;20051;-71
2022/10/14 03:26:28;;;;;;;129.80;8.60;;;10.20;99.90;;;;;;5127225;27;20051;-70
2022/10/14 03:28:53;;;;;;;153.95;8.27;;;10.20;99.90;;;;;;5128324;27;20058;-70
2022/10/14 03:31:19;;;;;;;147.15;8.98;;;10.30;99.90;;;;;;5127067;27;20046;-70
2022/10/14 03:33:45;;;;;;;269.60;9.75;;;10.20;99.90;;;;;;5147473;27;20411;-70
2022/10/14 03:36:13;;;;;;;93.45;6.70;;;10.20;99.90;;;;;;5127220;27;20407;-71
2022/10/14 03:38:39;;;;;;;85.22;7.45;;;10.20;99.90;;;;;;5128766;27;20330;-70
2022/10/14 03:41:04;;;;;;;207.18;7.85;;;10.20;99.90;;;;;;5127765;27;20065;-70
2022/10/14 03:43:30;;;;;;;106.72;5.72;;;10.20;99.90;;;;;;5089110;28;20043;-69
2022/10/14 03:45:56;;;;;;;126.32;6.15;;;10.20;99.90;;;;;;5119763;27;20049;-70
2022/10/14 03:48:21;;;;;;;129.40;6.65;;;10.20;99.90;;;;;;5129326;27;20042;-70
2022/10/14 03:50:47;;;;;;;128.90;6.38;;;10.10;99.90;;;;;;5132164;27;20428;-69
2022/10/14 03:53:13;;;;;;;121.10;6.13;;;10.10;99.90;;;;;;5130428;27;20115;-70
2022/10/14 03:55:39;;;;;;;176.70;6.70;;;10.10;99.90;;;;;;5132237;27;20051;-70
2022/10/14 03:58:05;;;;;;;193.32;6.68;;;10.10;99.90;;;;;;5130628;27;20045;-70
2022/10/14 04:00:31;;;;;;;197.70;6.57;;;10.10;99.90;;;;;;5132347;27;20038;-70
2022/10/14 04:02:57;;;;;;;170.40;6.47;;;10.10;99.90;;;;;;5131250;27;20050;-70
2022/10/14 04:05:23;;;;;;;131.63;5.90;;;10.00;99.90;;;;;;5131584;27;20038;-70
2022/10/14 04:07:49;;;;;;;127.32;6.18;;;10.00;99.90;;;;;;5131961;27;20082;-70
2022/10/14 04:10:15;;;;;;;69.82;4.78;;;10.00;99.90;;;;;;5137686;27;20039;-72
2022/10/14 04:12:42;;;;;;;88.97;5.03;;;10.00;99.90;;;;;;5129362;27;20043;-69
2022/10/14 04:15:08;;;;;;;114.88;5.20;;;10.00;99.90;;;;;;5131515;27;20499;-68
2022/10/14 04:17:34;;;;;;;167.13;6.45;;;10.00;99.90;;;;;;5131549;27;20552;-69
2022/10/14 04:20:00;;;;;;;135.63;5.43;;;10.00;99.90;;;;;;5130833;27;20043;-94
2022/10/14 04:22:26;;;;;;;93.90;4.40;;;9.90;99.90;;;;;;5129497;27;20047;-69
2022/10/14 04:24:52;;;;;;;116.80;4.63;;;9.90;99.90;;;;;;5151207;27;20046;-74
2022/10/14 04:27:18;;;;;;;93.68;4.63;;;9.90;99.90;;;;;;5153083;27;20066;-71
2022/10/14 04:29:43;;;;;;;67.22;3.97;;;9.80;99.90;;;;;;5153738;27;20484;-70
2022/10/14 04:32:09;;;;;;;98.65;5.32;;;9.80;99.90;;;;;;5116899;27;20103;-69
2022/10/14 04:34:35;;;;;;;67.15;4.72;;;9.80;99.90;;;;;;5151627;27;20039;-69
2022/10/14 04:37:00;;;;;;;110.68;4.93;;;9.80;99.90;;;;;;5132852;27;20051;-71
2022/10/14 04:39:26;;;;;;;89.57;5.22;;;9.80;99.90;;;;;;5131323;27;20054;-69
2022/10/14 04:41:52;;;;;;;72.10;5.03;;;9.80;99.90;;;;;;5130653;27;20047;-70
2022/10/14 04:44:18;;;;;;;77.78;5.10;;;9.80;99.90;;;;;;5130762;27;20047;-69
2022/10/14 04:46:43;;;;;;;74.13;4.60;;;9.80;99.90;;;;;;5113002;27;20046;-70
2022/10/14 04:49:11;;;;;;;54.28;5.00;;;9.80;99.90;;;;;;5149431;27;20122;-69
2022/10/14 04:51:37;;;;;;;82.40;5.50;;;9.80;99.90;;;;;;5130632;27;20060;-70
2022/10/14 04:54:03;;;;;;;53.15;5.25;;;9.90;99.90;;;;;;5130345;27;20038;-69
2022/10/14 04:56:29;;;;;;;87.50;5.70;;;9.90;99.90;;;;;;5130907;27;20528;-69
2022/10/14 04:58:54;;;;;;;81.18;7.10;;;9.90;99.90;;;;;;5131256;27;20056;-69
2022/10/14 05:01:20;;;;;;;63.88;6.30;;;9.90;99.90;;;;;;5130742;27;20037;-70
2022/10/14 05:03:47;;;;;;;94.78;7.72;;;9.90;99.90;;;;;;5148631;27;20099;-69
2022/10/14 05:06:13;;;;;;;24.95;4.80;;;9.90;99.90;;;;;;5148845;27;20058;-69
2022/10/14 05:08:38;;;;;;;37.13;5.10;;;10.00;99.90;;;;;;5130304;27;20495;-69
2022/10/14 05:11:04;;;;;;;38.03;5.10;;;10.00;99.90;;;;;;5115850;27;20084;-93
2022/10/14 05:13:30;;;;;;;56.20;5.68;;;10.00;99.90;;;;;;5130375;27;20050;-69
2022/10/14 05:15:56;;;;;;;59.92;6.22;;;10.00;99.90;;;;;;5146909;27;20081;-69
2022/10/14 05:18:21;;;;;;;42.08;5.53;;;10.00;99.90;;;;;;5129312;27;20479;-70
2022/10/14 05:20:47;;;;;;;53.50;6.13;;;10.00;99.90;;;;;;5148198;27;20384;-70
2022/10/14 05:23:13;;;;;;;33.70;5.93;;;10.00;99.90;;;;;;5149398;27;20081;-69
2022/10/14 05:25:39;;;;;;;73.40;6.75;;;10.00;99.90;;;;;;5125944;27;20469;-69
2022/10/14 05:28:04;;;;;;;59.13;6.35;;;10.10;99.90;;;;;;5125874;27;20511;-69
2022/10/14 05:30:30;;;;;;;56.55;6.88;;;10.10;99.90;;;;;;5126357;27;20050;-94
2022/10/14 05:32:56;;;;;;;57.53;6.68;;;10.10;99.90;;;;;;5127029;27;20462;-70
2022/10/14 05:35:22;;;;;;;80.25;6.53;;;10.10;99.90;;;;;;5126686;27;20628;-70
2022/10/14 05:37:52;;;;;;;57.92;7.07;;;10.10;99.90;;;;;;5126632;27;20101;-69
2022/10/14 05:40:18;;;;;;;60.17;7.95;;;10.10;99.90;;;;;;5127092;27;20035;-69
2022/10/14 05:42:44;;;;;;;97.70;8.43;;;10.20;99.90;;;;;;5110126;27;20054;-70
2022/10/14 05:45:10;;;;;;;48.95;6.65;;;10.20;99.90;;;;;;5095736;27;20053;-69
2022/10/14 05:47:35;;;;;;;71.32;8.40;;;10.20;99.90;;;;;;5114761;27;20094;-69
2022/10/14 05:50:02;;;;;;;82.28;8.35;;;10.20;99.90;;;;;;5107202;27;20047;-69
2022/10/14 05:52:29;;;;;;;44.35;7.80;;;10.20;99.90;;;;;;5122486;27;20064;-69
2022/10/14 05:54:54;;;;;;;64.13;8.50;;;10.30;99.90;;;;;;5117886;27;20409;-69
2022/10/14 05:57:20;;;;;;;64.72;9.05;;;10.30;99.90;;;;;;5110443;27;20027;-69
2022/10/14 05:59:46;;;;;;;74.05;7.50;;;10.30;99.90;;;;;;5106969;27;20048;-70
2022/10/14 06:02:11;;;;;;;56.20;6.00;;;10.30;99.90;;;;;;5113133;27;20059;-70
2022/10/14 06:04:39;;;;;;;113.68;6.78;;;10.40;99.90;;;;;;5108910;27;20497;-69
2022/10/14 06:07:05;;;;;;;100.88;7.15;;;10.40;99.90;;;;;;5125452;27;20035;-69
2022/10/14 06:09:31;;;;;;;207.10;8.55;;;10.40;99.90;;;;;;5121079;27;20503;-70
2022/10/14 06:11:57;;;;;;;175.05;7.97;;;10.40;99.90;;;;;;5117194;27;20075;-70
2022/10/14 06:14:22;;;;;;;227.52;8.68;;;10.30;99.90;;;;;;5127498;27;20042;-70
2022/10/14 06:16:49;;;;;;;195.48;7.68;;;10.30;99.90;;;;;;5104833;28;20047;-70
2022/10/14 06:19:15;;;;;;;178.73;6.97;;;10.30;99.90;;;;;;5124259;27;20066;-69
2022/10/14 06:21:41;;;;;;;162.48;7.80;;;10.30;99.90;;;;;;5127185;27;20603;-70
2022/10/14 06:24:07;;;;;;;331.17;10.30;;;10.30;99.90;;;;;;5108861;27;20552;-69
2022/10/14 06:26:33;;;;;;;213.82;8.45;;;10.30;99.90;;;;;;5108793;27;20051;-70
2022/10/14 06:28:58;;;;;;;198.27;7.95;;;10.30;99.90;;;;;;5105478;27;20062;-69
2022/10/14 06:31:24;;;;;;;242.40;9.57;;;10.30;99.90;;;;;;5125670;27;20046;-84
2022/10/14 06:33:50;;;;;;;235.70;7.85;;;10.30;99.90;;;;;;5124985;27;20091;-69
2022/10/14 06:36:16;;;;;;;129.27;8.27;;;10.40;99.90;;;;;;5126333;27;20468;-70
2022/10/14 06:38:41;;;;;;;120.05;7.25;;;10.30;99.90;;;;;;5127003;27;20035;-71
2022/10/14 06:41:07;;;;;;;114.75;8.50;;;10.40;99.90;;;;;;5127302;27;20040;-70
2022/10/14 06:43:34;;;;;;;189.82;8.68;;;10.40;99.90;;;;;;5126132;28;20051;-68
2022/10/14 06:46:00;;;;;;;208.98;9.10;;;10.50;99.90;;;;;;5125929;28;20051;-69
2022/10/14 06:48:26;;;;;;;159.02;8.93;;;10.50;99.90;;;;;;5126270;28;20446;-69
2022/10/14 06:50:52;;;;;;;286.13;10.43;;;10.50;99.90;;;;;;5126235;28;20054;-69
2022/10/14 06:53:18;;;;;;;312.20;11.05;;;10.60;99.90;;;;;;5127873;28;20480;-70
2022/10/14 06:55:44;;;;;;;194.73;9.60;;;10.60;99.90;;;;;;5124253;28;20043;-74
2022/10/14 06:58:09;;;;;;;332.08;12.23;;;10.60;99.90;;;;;;5127626;27;20047;-69
2022/10/14 07:00:36;;;;;;;255.07;11.63;;;10.60;99.90;;;;;;5107088;28;20032;-70
2022/10/14 07:03:02;;;;;;;255.88;10.10;;;10.60;99.90;;;;;;5108673;28;20077;-69
2022/10/14 07:05:28;;;;;;;150.48;9.75;;;10.60;99.90;;;;;;5122879;27;20047;-69
2022/10/14 07:07:57;;;;;;;218.27;11.48;;;10.70;99.90;;;;;;5121775;28;20087;-69
2022/10/14 07:10:23;;;;;;;168.82;10.93;;;10.70;99.90;;;;;;5112225;28;20050;-69
2022/10/14 07:12:52;;;;;;;256.70;12.85;;;10.70;99.90;;;;;;5123290;28;20059;-80
2022/10/14 07:15:18;;;;;;;277.58;14.45;;;10.80;99.90;;;;;;5122544;28;20055;-76
2022/10/14 07:17:44;;;;;;;129.95;13.07;;;10.80;99.90;;;;;;5122920;28;20041;-87
2022/10/14 07:20:11;;;;;;;77.65;14.35;;;10.80;99.90;;;;;;5124883;28;20090;-70
2022/10/14 07:22:36;;;;;;;67.72;15.80;;;10.80;99.90;;;;;;5126824;27;20480;-75
2022/10/14 07:25:03;;;;;;;58.75;15.90;;;10.80;99.90;;;;;;5113530;27;20043;-70
2022/10/14 07:27:29;;;;;;;55.58;15.85;;;10.80;99.90;;;;;;5132101;27;20047;-70
2022/10/14 07:29:55;;;;;;;53.83;16.73;;;10.90;99.90;;;;;;5119306;27;20084;-69
2022/10/14 07:32:21;;;;;;;49.60;16.17;;;10.90;99.90;;;;;;5132996;27;20146;-69
2022/10/14 07:34:47;;;;;;;49.05;16.42;;;11.00;99.90;;;;;;5131801;27;20110;-74
2022/10/14 07:37:12;;;;;;;48.55;17.10;;;11.00;99.90;;;;;;5151606;27;20077;-78
2022/10/14 07:39:38;;;;;;;47.75;16.88;;;11.00;99.90;;;;;;5128849;27;20043;-72
2022/10/14 07:42:04;;;;;;;46.33;15.68;;;11.10;99.90;;;;;;5142525;27;20046;-69
2022/10/14 07:44:30;;;;;;;45.83;16.80;;;11.10;99.90;;;;;;5155710;27;20489;-70
2022/10/14 07:46:57;;;;;;;47.85;19.00;;;11.10;99.90;;;;;;5106141;27;20220;-70
2022/10/14 07:49:23;;;;;;;41.60;17.67;;;11.20;99.90;;;;;;5113585;27;20047;-70
2022/10/14 07:51:49;;;;;;;43.03;16.73;;;11.10;99.90;;;;;;5114236;27;20499;-74
2022/10/14 07:54:18;;;;;;;55.85;17.90;;;11.10;99.90;;;;;;5138646;27;20038;-69
2022/10/14 07:56:44;;;;;;;40.65;16.65;;;11.20;99.90;;;;;;5128556;27;20089;-70
2022/10/14 07:59:10;;;;;;;38.42;17.08;;;11.20;99.90;;;;;;5148588;27;20043;-78
2022/10/14 08:01:36;;;;;;;39.90;16.33;;;11.20;99.90;;;;;;5123839;27;20533;-70
2022/10/14 08:04:03;;;;;;;41.22;15.75;;;11.20;99.90;;;;;;5119417;27;20312;-70
2022/10/14 08:06:29;;;;;;;31.58;15.57;;;11.20;99.90;;;;;;5099035;27;20035;-70
2022/10/14 08:08:54;;;;;;;32.45;15.57;;;11.10;99.90;;;;;;5131995;27;20577;-69
2022/10/14 08:11:25;;;;;;;41.00;16.90;;;11.10;99.90;;;;;;5110851;27;20034;-84
2022/10/14 08:13:51;;;;;;;42.05;17.77;;;11.10;99.90;;;;;;5129145;27;20039;-69
2022/10/14 08:16:23;;;;;;;40.92;17.70;;;11.20;99.90;;;;;;5100648;27;20045;-70
2022/10/14 08:18:50;;;;;;;52.08;18.92;;;11.20;99.90;;;;;;5117396;27;20111;-92
2022/10/14 08:21:17;;;;;;;52.00;19.63;;;11.30;99.90;;;;;;5129822;27;20036;-91
2022/10/14 08:23:43;;;;;;;44.08;18.40;;;11.30;99.90;;;;;;5108071;27;20103;-70
2022/10/14 08:26:27;;;;;;;44.95;20.23;;;11.30;99.90;;;;;;5129316;27;20805;-86
2022/10/14 08:28:53;;;;;;;43.83;18.92;;;11.30;99.90;;;;;;5119984;27;20050;-70
2022/10/14 08:31:19;;;;;;;45.63;19.85;;;11.30;99.90;;;;;;5121000;27;20038;-70
2022/10/14 08:33:45;;;;;;;45.25;19.38;;;11.30;99.90;;;;;;5125207;27;20047;-70
2022/10/14 08:36:12;;;;;;;40.30;19.23;;;11.30;99.90;;;;;;5126355;27;20476;-94
2022/10/14 08:38:38;;;;;;;40.80;18.88;;;11.40;99.90;;;;;;5133884;27;20042;-82
2022/10/14 08:41:13;;;;;;;39.40;18.67;;;11.40;99.90;;;;;;5115059;27;20054;-85
2022/10/14 08:43:48;;;;;;;36.97;17.50;;;11.40;99.90;;;;;;5105094;27;20279;-94
2022/10/14 08:46:25;;;;;;;39.95;18.33;;;11.40;99.90;;;;;;5134368;27;20039;-69
2022/10/14 08:49:07;;;;;;;36.42;16.90;;;11.40;99.90;;;;;;5136929;27;20047;-69
2022/10/14 08:51:33;;;;;;;38.10;18.60;;;11.40;99.90;;;;;;5144379;27;20550;-69
2022/10/14 08:54:07;;;;;;;37.92;18.17;;;11.50;99.90;;;;;;5119681;27;20043;-70
2022/10/14 08:56:35;;;;;;;36.22;18.00;;;11.50;99.90;;;;;;5127022;27;20077;-71
2022/10/14 08:59:13;;;;;;;42.92;18.98;;;11.50;99.90;;;;;;5129185;27;20089;-70
2022/10/14 09:02:03;;;;;;;37.38;17.42;;;11.50;99.90;;;;;;5145651;27;20046;-69
2022/10/14 09:04:34;;;;;;;33.47;18.13;;;11.60;99.90;;;;;;5138015;27;20043;-69
2022/10/14 09:07:01;;;;;;;40.00;18.35;;;11.60;99.90;;;;;;5146217;27;20031;-70
2022/10/14 09:09:48;;;;;;;30.42;17.58;;;11.60;99.90;;;;;;5122934;27;20403;-87
2022/10/14 09:12:20;;;;;;;29.42;17.55;;;11.60;99.90;;;;;;5146109;27;20045;-92
2022/10/14 09:14:58;;;;;;;28.35;16.80;;;11.60;99.90;;;;;;5146204;27;20057;-69
2022/10/14 09:17:31;;;;;;;28.73;17.00;;;11.70;99.90;;;;;;5123295;27;20039;-70
2022/10/14 09:20:17;;;;;;;34.40;18.63;;;11.60;99.90;;;;;;5127563;27;20150;-69
2022/10/14 09:22:58;;;;;;;31.00;18.80;;;11.70;99.90;;;;;;5144989;27;20122;-69
2022/10/14 09:25:24;;;;;;;27.65;17.60;;;11.80;99.90;;;;;;5126793;27;20051;-70
2022/10/14 09:27:49;;;;;;;34.85;18.05;;;12.00;99.90;;;;;;5139647;27;20042;-81
2022/10/14 09:30:16;;;;;;;30.40;17.25;;;12.00;99.90;;;;;;5138773;27;20034;-69
2022/10/14 09:32:48;;;;;;;30.75;18.02;;;12.10;99.90;;;;;;5132771;27;20039;-69
2022/10/14 09:35:38;;;;;;;27.45;16.88;;;12.20;99.90;;;;;;5139931;27;20039;-70
2022/10/14 09:38:04;;;;;;;33.00;19.58;;;12.30;99.90;;;;;;5144893;27;20512;-69
2022/10/14 09:40:30;;;;;;;27.80;17.60;;;12.50;99.90;;;;;;5146953;27;20054;-68
2022/10/14 09:43:14;;;;;;;25.42;14.80;;;12.60;99.90;;;;;;5110639;27;20039;-79
2022/10/14 09:46:01;;;;;;;24.25;15.25;;;12.70;99.90;;;;;;5144328;27;20099;-70
2022/10/14 09:48:43;;;;;;;23.50;14.60;;;12.60;99.90;;;;;;5144029;27;20047;-69
2022/10/14 09:51:25;;;;;;;23.15;14.10;;;12.50;99.90;;;;;;5122519;27;20061;-69
2022/10/14 09:53:57;;;;;;;21.65;15.00;;;12.50;99.90;;;;;;5137246;27;20508;-69
2022/10/14 09:56:36;;;;;;;20.60;14.35;;;12.50;99.90;;;;;;5135878;27;20038;-73
2022/10/14 09:59:12;;;;;;;21.13;14.68;;;12.50;99.90;;;;;;5140325;27;20460;-70
2022/10/14 10:01:47;;;;;;;21.77;14.55;;;12.50;99.90;;;;;;5105481;27;20089;-69
2022/10/14 10:04:46;;;;;;;18.45;14.10;;;12.50;99.90;;;;;;5127673;27;20474;-69
2022/10/14 10:07:32;;;;;;;24.10;15.25;;;12.60;99.90;;;;;;5143837;27;20050;-69
2022/10/14 10:10:15;;;;;;;26.58;15.60;;;12.60;99.90;;;;;;5143156;27;20062;-75
2022/10/14 10:12:45;;;;;;;24.50;14.98;;;12.70;99.90;;;;;;5129499;27;20046;-69
2022/10/14 10:15:18;;;;;;;23.27;14.88;;;12.70;99.90;;;;;;5134878;27;20085;-82
2022/10/14 10:17:44;;;;;;;25.13;15.25;;;12.70;99.90;;;;;;5145445;27;20514;-77
2022/10/14 10:20:32;;;;;;;21.52;13.93;;;12.70;99.90;;;;;;5125944;27;20065;-69
2022/10/14 10:23:18;;;;;;;23.40;14.45;;;12.70;99.90;;;;;;5144871;27;20141;-69
2022/10/14 10:25:44;;;;;;;25.80;15.77;;;12.70;99.90;;;;;;5116609;27;20059;-74
2022/10/14 10:28:30;;;;;;;24.42;15.75;;;12.70;99.90;;;;;;5125545;27;20500;-69
2022/10/14 10:31:20;;;;;;;20.98;14.85;;;12.70;99.90;;;;;;5119383;27;20488;-68
2022/10/14 10:34:00;;;;;;;21.40;14.43;;;12.70;99.90;;;;;;5084636;27;20424;-79
2022/10/14 10:36:44;;;;;;;24.60;15.18;;;12.70;99.90;;;;;;5126125;27;20039;-69
2022/10/14 10:39:41;;;;;;;25.92;14.70;;;12.70;99.90;;;;;;5101860;28;20502;-68
2022/10/14 10:42:24;;;;;;;19.80;14.18;;;12.80;99.90;;;;;;5117871;27;20500;-74
2022/10/14 10:45:15;;;;;;;22.08;15.15;;;12.90;99.90;;;;;;5125154;27;20084;-68
2022/10/14 10:48:05;;;;;;;23.20;14.45;;;13.00;99.90;;;;;;5113361;28;20047;-69
2022/10/14 10:51:08;;;;;;;19.73;14.43;;;13.10;99.90;;;;;;5109679;28;20484;-69
2022/10/14 10:53:39;;;;;;;20.27;13.30;;;13.00;99.90;;;;;;5100690;28;20063;-69
2022/10/14 10:56:44;;;;;;;18.48;14.32;;;13.10;99.90;;;;;;5118947;28;20051;-69
2022/10/14 10:59:35;;;;;;;25.50;14.25;;;13.20;99.90;;;;;;5081712;27;20054;-91
2022/10/14 11:02:32;;;;;;;20.35;14.50;;;13.20;99.90;;;;;;5115287;27;20050;-80
2022/10/14 11:05:20;;;;;;;25.02;15.02;;;13.20;99.90;;;;;;5125167;27;20066;-92
2022/10/14 11:14:26;;;;;;;24.67;15.30;;;13.40;99.90;;;;;;5124212;27;20043;-69
2022/10/14 11:17:00;;;;;;;25.42;16.20;;;13.40;99.90;;;;;;5119601;27;20055;-69
2022/10/14 11:20:04;;;;;;;30.17;15.88;;;13.40;99.90;;;;;;5124481;27;20027;-70
2022/10/14 11:23:03;;;;;;;27.08;16.73;;;13.40;99.90;;;;;;5096376;27;20141;-70
2022/10/14 11:25:34;;;;;;;26.83;16.47;;;13.50;99.90;;;;;;5122780;27;20167;-69
2022/10/14 11:28:12;;;;;;;25.38;15.48;;;13.50;99.90;;;;;;5130263;27;20469;-73
2022/10/14 11:31:09;;;;;;;26.90;16.83;;;13.60;99.90;;;;;;5123041;27;20126;-69
2022/10/14 11:33:43;;;;;;;24.77;15.45;;;13.60;99.90;;;;;;5126271;27;20046;-69
2022/10/14 11:36:30;;;;;;;28.27;15.10;;;13.60;99.90;;;;;;5115832;27;20457;-69
2022/10/14 11:39:14;;;;;;;21.90;15.00;;;13.60;99.90;;;;;;5121296;27;20415;-70
2022/10/14 11:41:55;;;;;;;23.13;14.50;;;13.60;99.90;;;;;;5123162;27;20048;-70
2022/10/14 11:44:28;;;;;;;26.92;16.67;;;13.50;99.90;;;;;;5116178;27;20043;-70
2022/10/14 11:46:57;;;;;;;25.92;16.60;;;13.50;99.90;;;;;;5115615;27;20082;-70
2022/10/14 11:49:39;;;;;;;22.73;14.70;;;13.50;99.90;;;;;;5120544;27;20400;-70
2022/10/14 11:52:10;;;;;;;25.60;16.05;;;13.50;99.90;;;;;;5126326;27;20039;-90
2022/10/14 11:54:47;;;;;;;24.75;15.77;;;13.40;99.90;;;;;;5122570;27;20046;-92
2022/10/14 11:57:34;;;;;;;25.48;14.85;;;13.40;99.90;;;;;;5128707;27;20047;-69
2022/10/14 12:00:06;;;;;;;26.13;16.63;;;13.30;99.90;;;;;;5128434;27;20051;-81
2022/10/14 12:02:56;;;;;;;26.52;15.68;;;13.30;99.90;;;;;;5130187;27;20047;-81
2022/10/14 12:05:41;;;;;;;24.60;14.45;;;13.30;99.90;;;;;;5129810;27;20091;-86
2022/10/14 12:08:41;;;;;;;25.20;16.02;;;13.30;99.90;;;;;;5121659;27;20139;-91
2022/10/14 12:11:26;;;;;;;;;;;13.30;99.90;;;;;;5111878;27;20047;-89
2022/10/14 12:14:02;;;;;;;24.13;14.88;;;13.30;99.90;;;;;;5126866;27;20254;-68
2022/10/14 12:16:30;;;;;;;25.20;15.65;;;13.30;99.90;;;;;;5116129;27;20035;-71
2022/10/14 12:18:56;;;;;;;27.08;16.35;;;13.30;99.90;;;;;;5126811;27;20369;-68
2022/10/14 12:21:26;;;;;;;25.35;15.63;;;13.30;99.90;;;;;;5126780;27;20571;-90
2022/10/14 12:24:14;;;;;;;25.08;15.95;;;13.30;99.90;;;;;;5128482;27;20092;-68
2022/10/14 12:27:00;;;;;;;27.05;16.63;;;13.30;99.90;;;;;;5131954;27;20111;-68
2022/10/14 12:29:58;;;;;;;29.38;17.83;;;13.30;99.90;;;;;;5125243;27;20475;-69
2022/10/14 12:32:29;;;;;;;29.65;17.23;;;13.20;99.90;;;;;;5110881;27;20051;-69
2022/10/14 12:34:57;;;;;;;26.42;16.95;;;13.30;99.90;;;;;;5126456;27;20039;-69
2022/10/14 12:37:36;;;;;;;26.40;17.08;;;13.30;99.90;;;;;;5130917;27;20085;-69
2022/10/14 12:40:05;;;;;;;29.05;16.60;;;13.40;99.90;;;;;;5144341;27;20043;-69
2022/10/14 12:42:43;;;;;;;27.83;17.42;;;13.40;99.90;;;;;;5129976;27;20455;-69
2022/10/14 12:45:17;;;;;;;26.15;16.63;;;13.40;99.90;;;;;;5143827;27;20121;-69
2022/10/14 12:47:43;;;;;;;27.00;17.25;;;13.40;99.90;;;;;;5130082;27;20089;-69
2022/10/14 12:50:14;;;;;;;25.42;15.80;;;13.40;99.90;;;;;;5149232;27;20089;-69
2022/10/14 12:52:47;;;;;;;24.15;16.25;;;13.40;99.90;;;;;;5148870;27;20131;-69
2022/10/14 12:55:19;;;;;;;30.13;17.45;;;13.40;99.90;;;;;;5149087;27;20039;-70
2022/10/14 12:57:58;;;;;;;26.80;16.98;;;13.40;99.90;;;;;;5131322;27;20097;-74